Time;durP1;ratioP1;P1;durP2;ratioP2;P2;SDS_P1;SDS_P2;PMS_P1;PMS_P2;Temp;Humidity;BMP_temperature;BMP_pressure;BME280_temperature;BME280_humidity;BME280_pressure;Samples;Min_cycle;Max_cycle;Signal;HPM_P1;HPM_P2
2022/11/17 00:14:40;;;;;;;3.80;2.47;;;;;;;7.55;100.00;95931.69;18499815;32;20061;-62
2022/11/17 00:36:31;;;;;;;3.53;2.20;;;;;;;7.56;100.00;95866.03;18498479;32;20078;-62
2022/11/17 00:58:25;;;;;;;3.67;2.03;;;;;;;7.42;100.00;95800.66;18494950;32;20083;-62
2022/11/17 01:19:53;;;;;;;1.47;0.97;;;;;;;7.13;100.00;95754.09;18496013;32;20103;-62
2022/11/17 01:29:56;;;;;;;1.60;0.70;;;;;;;7.35;100.00;95733.06;18480985;32;20071;-62
2022/11/17 02:03:08;;;;;;;0.50;0.30;;;;;;;8.10;100.00;95780.28;18225432;32;20062;-62
2022/11/17 02:25:10;;;;;;;1.57;0.10;;;;;;;8.57;100.00;95812.47;18441784;32;20469;-62
2022/11/17 02:35:27;;;;;;;0.47;0.00;;;;;;;8.67;100.00;95771.03;18440818;32;20066;-62
2022/11/17 02:56:46;;;;;;;1.27;0.20;;;;;;;8.71;100.00;95739.69;18368731;32;20064;-62
2022/11/17 03:07:10;;;;;;;0.70;0.20;;;;;;;8.84;100.00;95726.47;18438967;32;20075;-62
2022/11/17 03:18:08;;;;;;;0.20;0.10;;;;;;;8.89;100.00;95710.16;18438552;32;20104;-62
2022/11/17 03:28:20;;;;;;;0.30;0.10;;;;;;;8.88;100.00;95730.13;18174358;32;20117;-62
2022/11/17 03:38:59;;;;;;;0.10;0.10;;;;;;;9.06;100.00;95733.72;18174566;32;20086;-62
2022/11/17 05:15:03;;;;;;;1.90;0.20;;;;;;;10.05;100.00;95881.25;18431705;32;20066;-62
2022/11/17 05:25:38;;;;;;;0.60;0.20;;;;;;;9.97;100.00;95843.09;18431188;32;20484;-62
2022/11/17 05:35:42;;;;;;;0.82;0.28;;;;;;;9.79;100.00;95836.03;18430834;32;20053;-62
2022/11/17 05:45:47;;;;;;;1.00;0.20;;;;;;;9.39;100.00;95835.97;18430548;32;20053;-62
2022/11/17 06:40:56;;;;;;;1.20;0.10;;;;;;;8.86;100.00;95824.75;18440458;32;20079;-62
2022/11/17 07:25:06;;;;;;;1.73;0.17;;;;;;;9.44;100.00;95900.56;18436029;32;20053;-62
2022/11/17 07:35:10;;;;;;;2.50;0.30;;;;;;;9.66;100.00;95929.44;18423043;32;20081;-62
2022/11/17 07:45:15;;;;;;;1.80;0.50;;;;;;;9.80;100.00;95940.97;18423278;32;20156;-63
2022/11/17 07:55:22;;;;;;;2.00;0.37;;;;;;;9.92;100.00;95956.63;18435864;32;20084;-62
2022/11/17 08:17:13;;;;;;;2.65;0.60;;;;;;;10.33;100.00;96008.78;18434102;32;20430;-62
2022/11/17 08:27:17;;;;;;;8.82;1.20;;;;;;;10.47;100.00;96027.66;18432848;32;20104;-62
2022/11/17 08:37:21;;;;;;;3.37;0.85;;;;;;;10.70;100.00;96063.53;18433665;32;20080;-62
2022/11/17 08:47:24;;;;;;;4.43;0.55;;;;;;;11.02;95.84;96088.69;18432911;32;20065;-62
2022/11/17 08:57:31;;;;;;;5.87;0.57;;;;;;;11.02;99.56;96094.09;18418130;32;20049;-62
2022/11/17 09:07:37;;;;;;;1.48;0.50;;;;;;;11.23;92.57;96078.09;18431796;32;20486;-62
2022/11/17 09:17:46;;;;;;;2.25;0.52;;;;;;;11.32;93.17;96080.84;18431734;32;20057;-62
2022/11/17 09:28:39;;;;;;;3.17;0.60;;;;;;;11.30;94.00;96080.34;18430532;32;20341;-62
2022/11/17 09:39:59;;;;;;;1.52;0.52;;;;;;;11.14;95.23;96051.03;18293862;32;20145;-62
2022/11/17 09:50:50;;;;;;;4.80;1.05;;;;;;;11.21;99.28;96060.56;18280428;32;20458;-62
2022/11/17 10:13:19;;;;;;;5.57;1.50;;;;;;;11.17;99.67;96039.56;18104879;32;20071;-62
2022/11/17 11:09:09;;;;;;;3.60;0.73;;;;;;;12.84;78.86;96028.69;18438983;32;20061;-62
2022/11/17 11:19:58;;;;;;;3.42;0.82;;;;;;;13.18;84.92;96019.62;18438531;32;20128;-62
2022/11/17 12:15:23;;;;;;;2.05;0.52;;;;;;;13.58;83.90;95991.31;18435001;32;20450;-62
2022/11/17 12:25:36;;;;;;;1.60;0.45;;;;;;;13.58;81.78;95999.47;18433339;32;20053;-62
2022/11/17 12:35:39;;;;;;;4.60;0.45;;;;;;;13.80;84.03;95994.81;18433697;32;20114;-62
2022/11/17 12:45:58;;;;;;;0.40;0.20;;;;;;;13.54;81.97;95993.88;18419327;32;20073;-62
2022/11/17 12:56:29;;;;;;;0.85;0.20;;;;;;;13.47;82.04;96001.75;18432329;32;20142;-62
2022/11/17 13:06:33;;;;;;;2.22;0.43;;;;;;;13.67;74.06;95988.53;18432165;32;20062;-62
2022/11/17 13:39:02;;;;;;;1.05;0.28;;;;;;;13.25;81.71;95985.75;18430630;32;20095;-62
2022/11/17 13:49:35;;;;;;;0.62;0.25;;;;;;;13.15;72.59;95984.97;18431148;32;20061;-62
2022/11/17 14:00:05;;;;;;;0.90;0.20;;;;;;;13.25;75.12;95974.88;18417217;32;20072;-62
2022/11/17 14:10:19;;;;;;;4.12;0.20;;;;;;;13.28;73.66;95958.75;18419460;32;20423;-62
2022/11/17 14:53:30;;;;;;;0.73;0.20;;;;;;;11.80;84.61;95909.41;18440138;32;20443;-62
2022/11/17 15:04:05;;;;;;;1.40;0.25;;;;;;;11.60;85.78;95912.75;18425843;32;20057;-62
2022/11/17 15:25:44;;;;;;;2.05;0.30;;;;;;;11.58;87.50;95875.19;18362355;32;20098;-62
2022/11/17 15:36:08;;;;;;;1.10;0.30;;;;;;;11.24;87.07;95881.44;18392458;32;20053;-62
2022/11/17 16:08:44;;;;;;;1.08;0.30;;;;;;;9.79;97.05;95853.00;18435437;32;20058;-62
2022/11/17 16:18:51;;;;;;;2.25;0.40;;;;;;;9.61;100.00;95879.09;18434935;32;20069;-62
2022/11/17 16:29:00;;;;;;;1.98;0.47;;;;;;;9.63;100.00;95900.37;18433983;32;20088;-61
2022/11/17 16:39:08;;;;;;;0.50;0.32;;;;;;;10.05;100.00;95946.06;18419837;32;20413;-61
2022/11/17 16:49:14;;;;;;;5.00;0.55;;;;;;;9.98;100.00;95978.88;18419159;32;20084;-61
2022/11/17 17:22:37;;;;;;;0.20;0.10;;;;;;;9.38;100.00;95947.63;18431195;32;20053;-61
2022/11/17 17:32:52;;;;;;;2.03;0.27;;;;;;;9.29;100.00;95955.63;18430715;32;20094;-61
2022/11/17 17:43:05;;;;;;;1.40;0.20;;;;;;;9.22;100.00;95956.06;18431202;32;20061;-61
2022/11/17 18:04:42;;;;;;;1.13;0.27;;;;;;;9.15;100.00;96031.16;18443499;32;20441;-61
2022/11/17 18:14:56;;;;;;;4.43;0.60;;;;;;;9.13;100.00;96031.47;18442511;32;20124;-61
2022/11/17 18:25:05;;;;;;;1.03;0.20;;;;;;;9.13;100.00;95988.34;18442528;32;20045;-61
2022/11/17 18:35:34;;;;;;;2.17;0.37;;;;;;;9.08;100.00;96017.31;18441058;32;20046;-61
2022/11/17 18:45:42;;;;;;;1.00;0.37;;;;;;;8.99;100.00;96036.09;18440935;32;20041;-61
2022/11/17 18:56:22;;;;;;;0.57;0.20;;;;;;;8.94;100.00;96010.00;18426288;32;20069;-61
2022/11/17 19:17:56;;;;;;;0.40;0.20;;;;;;;8.73;100.00;95953.03;18438769;32;20054;-61
2022/11/17 19:28:22;;;;;;;0.53;0.20;;;;;;;8.59;100.00;95963.00;18437450;32;20391;-62
2022/11/17 19:38:32;;;;;;;0.60;0.20;;;;;;;8.44;100.00;95940.63;18437846;32;20357;-62
2022/11/17 19:48:41;;;;;;;0.63;0.20;;;;;;;8.28;100.00;95947.41;18437071;32;20117;-61
2022/11/17 19:58:56;;;;;;;0.63;0.03;;;;;;;8.05;100.00;95960.72;18422191;32;20072;-62
2022/11/17 20:09:55;;;;;;;0.17;0.07;;;;;;;7.86;100.00;95958.06;18435113;32;20033;-61
2022/11/17 20:31:11;;;;;;;0.10;0.00;;;;;;;7.36;100.00;95982.78;18433180;32;20356;-61
2022/11/17 20:41:31;;;;;;;0.50;0.10;;;;;;;7.22;100.00;95988.09;18434384;32;20138;-61
2022/11/17 21:03:24;;;;;;;0.20;0.10;;;;;;;7.01;100.00;96014.41;18432510;32;20077;-62
2022/11/17 21:13:39;;;;;;;0.20;0.10;;;;;;;7.04;100.00;96027.25;18432023;32;20053;-62
2022/11/17 22:42:17;;;;;;;0.40;0.20;;;;;;;8.03;100.00;95989.84;18439652;32;20045;-62
2022/11/17 22:52:21;;;;;;;0.77;0.30;;;;;;;8.03;100.00;96005.16;18440824;32;20113;-62
2022/11/17 23:02:24;;;;;;;0.33;0.10;;;;;;;8.06;100.00;95997.31;18439815;32;20038;-62
2022/11/17 23:12:26;;;;;;;0.30;0.20;;;;;;;8.09;100.00;96006.69;18439070;32;20072;-62
2022/11/17 23:22:30;;;;;;;0.30;0.20;;;;;;;8.12;100.00;96016.88;18438776;32;20097;-61
2022/11/17 23:43:44;;;;;;;0.70;0.30;;;;;;;8.21;100.00;96044.72;18435722;32;20097;-62
2022/11/17 23:53:51;;;;;;;5.10;0.37;;;;;;;8.28;100.00;96047.03;18436865;32;20046;-62
